sensor_id;sensor_type;location;lat;lon;timestamp;pressure;altitude;pressure_sealevel;temperature;humidity
11808;BME280;5961;42.640;23.380;2024-03-02T00:00:49;93477.47;;;8.17;100.00
11808;BME280;5961;42.640;23.380;2024-03-02T00:03:16;93482.75;;;8.17;100.00
11808;BME280;5961;42.640;23.380;2024-03-02T00:05:43;93490.47;;;8.22;100.00
11808;BME280;5961;42.640;23.380;2024-03-02T00:08:12;93487.66;;;8.27;100.00
11808;BME280;5961;42.640;23.380;2024-03-02T00:10:41;93485.28;;;8.26;100.00
11808;BME280;5961;42.640;23.380;2024-03-02T00:13:09;93495.38;;;8.33;100.00
11808;BME280;5961;42.640;23.380;2024-03-02T00:15:43;93486.34;;;8.34;100.00
11808;BME280;5961;42.640;23.380;2024-03-02T00:18:13;93485.88;;;8.44;100.00
11808;BME280;5961;42.640;23.380;2024-03-02T00:20:40;93487.00;;;8.55;100.00
11808;BME280;5961;42.640;23.380;2024-03-02T00:23:08;93477.38;;;8.62;100.00
11808;BME280;5961;42.640;23.380;2024-03-02T00:25:41;93481.09;;;8.73;100.00
11808;BME280;5961;42.640;23.380;2024-03-02T00:28:17;93478.00;;;8.83;100.00
11808;BME280;5961;42.640;23.380;2024-03-02T00:30:51;93473.69;;;8.91;100.00
11808;BME280;5961;42.640;23.380;2024-03-02T00:33:19;93478.09;;;8.99;100.00
11808;BME280;5961;42.640;23.380;2024-03-02T00:35:47;93428.13;;;8.73;100.00
11808;BME280;5961;42.640;23.380;2024-03-02T00:38:14;93460.31;;;9.00;100.00
11808;BME280;5961;42.640;23.380;2024-03-02T00:40:43;93446.31;;;8.87;100.00
11808;BME280;5961;42.640;23.380;2024-03-02T00:46:16;93463.78;;;8.88;100.00
11808;BME280;5961;42.640;23.380;2024-03-02T00:49:02;93448.72;;;8.92;100.00
11808;BME280;5961;42.640;23.380;2024-03-02T00:51:31;93454.81;;;8.93;100.00
11808;BME280;5961;42.640;23.380;2024-03-02T00:54:00;93457.34;;;8.89;100.00
11808;BME280;5961;42.640;23.380;2024-03-02T00:56:31;93453.72;;;8.81;100.00
11808;BME280;5961;42.640;23.380;2024-03-02T00:58:59;93450.53;;;8.88;100.00
11808;BME280;5961;42.640;23.380;2024-03-02T01:01:25;93445.53;;;8.87;100.00
11808;BME280;5961;42.640;23.380;2024-03-02T01:03:52;93432.97;;;8.83;100.00
11808;BME280;5961;42.640;23.380;2024-03-02T01:06:19;93449.38;;;9.01;100.00
11808;BME280;5961;42.640;23.380;2024-03-02T01:08:47;93448.59;;;9.01;100.00
11808;BME280;5961;42.640;23.380;2024-03-02T01:11:16;93450.25;;;9.05;100.00
11808;BME280;5961;42.640;23.380;2024-03-02T01:13:44;93450.44;;;9.12;100.00
11808;BME280;5961;42.640;23.380;2024-03-02T01:16:11;93460.34;;;9.27;100.00
11808;BME280;5961;42.640;23.380;2024-03-02T01:18:38;93449.06;;;9.30;100.00
11808;BME280;5961;42.640;23.380;2024-03-02T01:21:05;93437.56;;;9.26;100.00
11808;BME280;5961;42.640;23.380;2024-03-02T01:23:31;93444.19;;;9.32;100.00
11808;BME280;5961;42.640;23.380;2024-03-02T01:25:58;93449.91;;;9.34;100.00
11808;BME280;5961;42.640;23.380;2024-03-02T01:28:25;93437.53;;;9.38;100.00
11808;BME280;5961;42.640;23.380;2024-03-02T01:30:53;93437.28;;;9.44;100.00
11808;BME280;5961;42.640;23.380;2024-03-02T01:33:20;93431.19;;;9.43;100.00
11808;BME280;5961;42.640;23.380;2024-03-02T01:35:47;93404.56;;;9.24;100.00
11808;BME280;5961;42.640;23.380;2024-03-02T01:38:13;93430.44;;;9.43;100.00
11808;BME280;5961;42.640;23.380;2024-03-02T01:40:40;93431.28;;;9.47;100.00
11808;BME280;5961;42.640;23.380;2024-03-02T01:43:09;93434.41;;;9.49;100.00
11808;BME280;5961;42.640;23.380;2024-03-02T01:45:36;93416.25;;;9.51;100.00
11808;BME280;5961;42.640;23.380;2024-03-02T01:48:06;93420.09;;;9.53;100.00
11808;BME280;5961;42.640;23.380;2024-03-02T01:50:34;93429.94;;;9.53;100.00
11808;BME280;5961;42.640;23.380;2024-03-02T01:53:01;93420.78;;;9.50;100.00
11808;BME280;5961;42.640;23.380;2024-03-02T01:55:28;93421.13;;;9.49;100.00
11808;BME280;5961;42.640;23.380;2024-03-02T01:57:55;93415.38;;;9.47;100.00
11808;BME280;5961;42.640;23.380;2024-03-02T02:00:22;93418.28;;;9.42;100.00
11808;BME280;5961;42.640;23.380;2024-03-02T02:02:50;93385.38;;;9.15;100.00
11808;BME280;5961;42.640;23.380;2024-03-02T02:05:19;93420.84;;;9.38;100.00
11808;BME280;5961;42.640;23.380;2024-03-02T02:07:46;93419.84;;;9.43;100.00
11808;BME280;5961;42.640;23.380;2024-03-02T02:10:12;93419.63;;;9.35;100.00
11808;BME280;5961;42.640;23.380;2024-03-02T02:12:39;93411.06;;;9.26;100.00
11808;BME280;5961;42.640;23.380;2024-03-02T02:15:22;93419.78;;;9.27;100.00
11808;BME280;5961;42.640;23.380;2024-03-02T02:17:48;93411.63;;;9.20;100.00
11808;BME280;5961;42.640;23.380;2024-03-02T02:20:15;93406.44;;;9.23;100.00
11808;BME280;5961;42.640;23.380;2024-03-02T02:22:54;93410.88;;;9.19;100.00
11808;BME280;5961;42.640;23.380;2024-03-02T02:25:21;93404.25;;;9.13;100.00
11808;BME280;5961;42.640;23.380;2024-03-02T02:27:47;93413.75;;;9.14;100.00
11808;BME280;5961;42.640;23.380;2024-03-02T02:30:18;93388.66;;;8.96;100.00
11808;BME280;5961;42.640;23.380;2024-03-02T02:32:45;93414.53;;;9.15;100.00
11808;BME280;5961;42.640;23.380;2024-03-02T02:35:12;93413.13;;;9.05;100.00
11808;BME280;5961;42.640;23.380;2024-03-02T02:37:39;93415.00;;;9.05;100.00
11808;BME280;5961;42.640;23.380;2024-03-02T02:40:08;93418.88;;;9.07;100.00
11808;BME280;5961;42.640;23.380;2024-03-02T02:42:35;93418.34;;;9.02;100.00
11808;BME280;5961;42.640;23.380;2024-03-02T02:45:01;93420.41;;;9.08;100.00
11808;BME280;5961;42.640;23.380;2024-03-02T02:47:29;93420.53;;;9.12;100.00
11808;BME280;5961;42.640;23.380;2024-03-02T02:49:55;93419.75;;;9.11;100.00
11808;BME280;5961;42.640;23.380;2024-03-02T02:52:22;93412.66;;;9.15;100.00
11808;BME280;5961;42.640;23.380;2024-03-02T02:54:49;93417.97;;;9.15;100.00
11808;BME280;5961;42.640;23.380;2024-03-02T02:57:24;93413.41;;;9.16;100.00
11808;BME280;5961;42.640;23.380;2024-03-02T02:59:51;93406.91;;;9.13;100.00
11808;BME280;5961;42.640;23.380;2024-03-02T03:02:17;93416.38;;;9.26;100.00
11808;BME280;5961;42.640;23.380;2024-03-02T03:04:44;93414.25;;;9.32;100.00
11808;BME280;5961;42.640;23.380;2024-03-02T03:07:11;93414.75;;;9.37;100.00
11808;BME280;5961;42.640;23.380;2024-03-02T03:09:37;93417.59;;;9.45;100.00
11808;BME280;5961;42.640;23.380;2024-03-02T03:12:05;93405.44;;;9.44;100.00
11808;BME280;5961;42.640;23.380;2024-03-02T03:14:33;93412.16;;;9.53;100.00
11808;BME280;5961;42.640;23.380;2024-03-02T03:17:00;93386.78;;;9.40;100.00
11808;BME280;5961;42.640;23.380;2024-03-02T03:19:26;93413.28;;;9.68;100.00
11808;BME280;5961;42.640;23.380;2024-03-02T03:21:53;93422.09;;;9.72;100.00
11808;BME280;5961;42.640;23.380;2024-03-02T03:24:20;93419.97;;;9.77;100.00
11808;BME280;5961;42.640;23.380;2024-03-02T03:26:46;93421.16;;;9.80;100.00
11808;BME280;5961;42.640;23.380;2024-03-02T03:29:13;93421.16;;;9.80;100.00
11808;BME280;5961;42.640;23.380;2024-03-02T03:31:41;93422.28;;;9.79;100.00
11808;BME280;5961;42.640;23.380;2024-03-02T03:34:08;93422.72;;;9.81;100.00
11808;BME280;5961;42.640;23.380;2024-03-02T03:36:34;93426.91;;;9.82;100.00
11808;BME280;5961;42.640;23.380;2024-03-02T03:39:01;93415.59;;;9.69;100.00
11808;BME280;5961;42.640;23.380;2024-03-02T03:41:28;93429.66;;;9.70;100.00
11808;BME280;5961;42.640;23.380;2024-03-02T03:43:55;93419.94;;;9.62;100.00
11808;BME280;5961;42.640;23.380;2024-03-02T03:46:22;93419.84;;;9.58;100.00
11808;BME280;5961;42.640;23.380;2024-03-02T03:48:50;93424.81;;;9.60;100.00
11808;BME280;5961;42.640;23.380;2024-03-02T03:51:17;93390.91;;;9.37;100.00
11808;BME280;5961;42.640;23.380;2024-03-02T03:53:44;93420.63;;;9.59;100.00
11808;BME280;5961;42.640;23.380;2024-03-02T03:56:10;93415.41;;;9.62;100.00
11808;BME280;5961;42.640;23.380;2024-03-02T03:58:37;93420.38;;;9.64;100.00
11808;BME280;5961;42.640;23.380;2024-03-02T04:01:03;93413.53;;;9.63;100.00
11808;BME280;5961;42.640;23.380;2024-03-02T04:03:30;93415.16;;;9.67;100.00
11808;BME280;5961;42.640;23.380;2024-03-02T04:05:58;93423.66;;;9.73;100.00
11808;BME280;5961;42.640;23.380;2024-03-02T04:08:25;93421.41;;;9.75;100.00
11808;BME280;5961;42.640;23.380;2024-03-02T04:10:52;93421.69;;;9.70;100.00
11808;BME280;5961;42.640;23.380;2024-03-02T04:13:18;93382.88;;;9.50;100.00
11808;BME280;5961;42.640;23.380;2024-03-02T04:15:45;93417.72;;;9.79;100.00
11808;BME280;5961;42.640;23.380;2024-03-02T04:18:12;93420.06;;;9.81;100.00
11808;BME280;5961;42.640;23.380;2024-03-02T04:20:38;93422.34;;;9.82;100.00
11808;BME280;5961;42.640;23.380;2024-03-02T04:23:06;93424.69;;;9.84;100.00
11808;BME280;5961;42.640;23.380;2024-03-02T04:25:33;93400.78;;;9.68;100.00
11808;BME280;5961;42.640;23.380;2024-03-02T04:28:00;93417.59;;;9.88;100.00
11808;BME280;5961;42.640;23.380;2024-03-02T04:30:26;93378.63;;;9.61;100.00
11808;BME280;5961;42.640;23.380;2024-03-02T04:32:53;93424.78;;;9.87;100.00
11808;BME280;5961;42.640;23.380;2024-03-02T04:35:20;93422.03;;;9.84;100.00
11808;BME280;5961;42.640;23.380;2024-03-02T04:37:47;93421.59;;;9.66;100.00
11808;BME280;5961;42.640;23.380;2024-03-02T04:40:15;93421.13;;;9.64;100.00
11808;BME280;5961;42.640;23.380;2024-03-02T04:42:41;93412.06;;;9.50;100.00
11808;BME280;5961;42.640;23.380;2024-03-02T04:45:08;93417.88;;;9.40;100.00
11808;BME280;5961;42.640;23.380;2024-03-02T04:47:35;93420.13;;;9.25;100.00
11808;BME280;5961;42.640;23.380;2024-03-02T04:50:02;93373.00;;;8.91;100.00
11808;BME280;5961;42.640;23.380;2024-03-02T04:52:29;93430.56;;;9.18;100.00
11808;BME280;5961;42.640;23.380;2024-03-02T04:54:55;93419.16;;;9.18;100.00
11808;BME280;5961;42.640;23.380;2024-03-02T04:57:56;93420.22;;;9.29;100.00
11808;BME280;5961;42.640;23.380;2024-03-02T05:00:22;93415.59;;;9.26;100.00
11808;BME280;5961;42.640;23.380;2024-03-02T05:02:49;93429.56;;;9.38;100.00
11808;BME280;5961;42.640;23.380;2024-03-02T05:05:16;93400.38;;;9.23;100.00
11808;BME280;5961;42.640;23.380;2024-03-02T05:07:43;93391.47;;;9.15;100.00
11808;BME280;5961;42.640;23.380;2024-03-02T05:10:09;93440.38;;;9.46;100.00
11808;BME280;5961;42.640;23.380;2024-03-02T05:12:37;93430.97;;;9.48;100.00
11808;BME280;5961;42.640;23.380;2024-03-02T05:15:23;93435.25;;;9.53;100.00
11808;BME280;5961;42.640;23.380;2024-03-02T05:17:50;93438.34;;;9.55;100.00
11808;BME280;5961;42.640;23.380;2024-03-02T05:20:16;93440.75;;;9.60;100.00
11808;BME280;5961;42.640;23.380;2024-03-02T05:22:43;93443.91;;;9.65;100.00
11808;BME280;5961;42.640;23.380;2024-03-02T05:25:10;93438.59;;;9.65;100.00
11808;BME280;5961;42.640;23.380;2024-03-02T05:27:37;93443.31;;;9.72;100.00
11808;BME280;5961;42.640;23.380;2024-03-02T05:30:04;93446.84;;;9.76;100.00
11808;BME280;5961;42.640;23.380;2024-03-02T05:32:34;93447.28;;;9.78;100.00
11808;BME280;5961;42.640;23.380;2024-03-02T05:35:00;93453.44;;;9.82;100.00
11808;BME280;5961;42.640;23.380;2024-03-02T05:37:28;93462.59;;;9.84;100.00
11808;BME280;5961;42.640;23.380;2024-03-02T05:39:55;93463.38;;;9.85;100.00
11808;BME280;5961;42.640;23.380;2024-03-02T05:42:22;93455.25;;;9.78;100.00
11808;BME280;5961;42.640;23.380;2024-03-02T05:44:48;93465.69;;;9.86;100.00
11808;BME280;5961;42.640;23.380;2024-03-02T05:47:15;93463.38;;;9.85;100.00
11808;BME280;5961;42.640;23.380;2024-03-02T05:49:43;93468.44;;;9.90;100.00
11808;BME280;5961;42.640;23.380;2024-03-02T05:52:10;93478.69;;;9.91;100.00
11808;BME280;5961;42.640;23.380;2024-03-02T05:54:37;93475.03;;;9.96;100.00
11808;BME280;5961;42.640;23.380;2024-03-02T05:57:04;93480.75;;;9.98;100.00
11808;BME280;5961;42.640;23.380;2024-03-02T05:59:51;93483.09;;;10.00;100.00
11808;BME280;5961;42.640;23.380;2024-03-02T06:02:19;93477.09;;;10.03;100.00
11808;BME280;5961;42.640;23.380;2024-03-02T06:04:47;93482.81;;;10.05;100.00
11808;BME280;5961;42.640;23.380;2024-03-02T06:07:13;93485.16;;;10.06;100.00
11808;BME280;5961;42.640;23.380;2024-03-02T06:09:41;93485.16;;;10.06;100.00
11808;BME280;5961;42.640;23.380;2024-03-02T06:12:07;93485.56;;;10.08;100.00
11808;BME280;5961;42.640;23.380;2024-03-02T06:14:34;93482.91;;;10.08;100.00
11808;BME280;5961;42.640;23.380;2024-03-02T06:17:01;93482.91;;;10.08;100.00
11808;BME280;5961;42.640;23.380;2024-03-02T06:19:27;93479.84;;;10.06;100.00
11808;BME280;5961;42.640;23.380;2024-03-02T06:21:56;93483.25;;;10.07;100.00
11808;BME280;5961;42.640;23.380;2024-03-02T06:24:22;93486.69;;;10.07;100.00
11808;BME280;5961;42.640;23.380;2024-03-02T06:26:49;93480.94;;;10.05;100.00
11808;BME280;5961;42.640;23.380;2024-03-02T06:29:16;93475.91;;;10.00;100.00
11808;BME280;5961;42.640;23.380;2024-03-02T06:31:42;93493.53;;;10.08;100.00
11808;BME280;5961;42.640;23.380;2024-03-02T06:34:09;93487.38;;;10.04;100.00
11808;BME280;5961;42.640;23.380;2024-03-02T06:36:36;93490.47;;;10.06;100.00
11808;BME280;5961;42.640;23.380;2024-03-02T06:39:04;93496.69;;;9.98;100.00
11808;BME280;5961;42.640;23.380;2024-03-02T06:41:31;93491.16;;;10.03;100.00
11808;BME280;5961;42.640;23.380;2024-03-02T06:43:57;93487.38;;;10.04;100.00
11808;BME280;5961;42.640;23.380;2024-03-02T06:46:25;93479.56;;;9.96;100.00
11808;BME280;5961;42.640;23.380;2024-03-02T06:48:52;93492.25;;;10.02;100.00
11808;BME280;5961;42.640;23.380;2024-03-02T06:51:19;93472.97;;;9.89;100.00
11808;BME280;5961;42.640;23.380;2024-03-02T06:53:45;93494.13;;;10.02;100.00
11808;BME280;5961;42.640;23.380;2024-03-02T06:56:14;93493.34;;;10.01;100.00
11808;BME280;5961;42.640;23.380;2024-03-02T06:58:40;93493.25;;;9.98;100.00
11808;BME280;5961;42.640;23.380;2024-03-02T07:01:08;93502.00;;;9.98;100.00
11808;BME280;5961;42.640;23.380;2024-03-02T07:03:35;93493.94;;;9.94;100.00
11808;BME280;5961;42.640;23.380;2024-03-02T07:06:02;93496.06;;;9.89;100.00
11808;BME280;5961;42.640;23.380;2024-03-02T07:08:29;93505.91;;;9.88;100.00
11808;BME280;5961;42.640;23.380;2024-03-02T07:10:56;93507.16;;;10.07;100.00
11808;BME280;5961;42.640;23.380;2024-03-02T07:13:24;93499.72;;;10.12;100.00
11808;BME280;5961;42.640;23.380;2024-03-02T07:15:51;93511.41;;;10.23;100.00
11808;BME280;5961;42.640;23.380;2024-03-02T07:18:46;93513.53;;;10.49;100.00
11808;BME280;5961;42.640;23.380;2024-03-02T07:21:17;93512.25;;;10.59;100.00
11808;BME280;5961;42.640;23.380;2024-03-02T07:23:43;93517.44;;;10.86;100.00
11808;BME280;5961;42.640;23.380;2024-03-02T07:26:10;93513.13;;;10.97;100.00
11808;BME280;5961;42.640;23.380;2024-03-02T07:28:38;93512.81;;;11.18;100.00
11808;BME280;5961;42.640;23.380;2024-03-02T07:31:05;93519.94;;;11.30;100.00
11808;BME280;5961;42.640;23.380;2024-03-02T07:33:33;93514.81;;;11.40;100.00
11808;BME280;5961;42.640;23.380;2024-03-02T07:36:00;93527.25;;;11.36;100.00
11808;BME280;5961;42.640;23.380;2024-03-02T07:38:27;93518.31;;;11.44;100.00
11808;BME280;5961;42.640;23.380;2024-03-02T07:40:54;93515.66;;;11.44;100.00
11808;BME280;5961;42.640;23.380;2024-03-02T07:43:21;93521.75;;;11.45;100.00
11808;BME280;5961;42.640;23.380;2024-03-02T07:45:49;93519.31;;;11.55;100.00
11808;BME280;5961;42.640;23.380;2024-03-02T07:48:16;93534.09;;;11.53;100.00
11808;BME280;5961;42.640;23.380;2024-03-02T07:50:43;93529.09;;;11.32;100.00
11808;BME280;5961;42.640;23.380;2024-03-02T07:53:10;93531.59;;;11.25;100.00
11808;BME280;5961;42.640;23.380;2024-03-02T07:55:36;93537.72;;;11.10;100.00
11808;BME280;5961;42.640;23.380;2024-03-02T07:58:03;93502.41;;;10.94;100.00
11808;BME280;5961;42.640;23.380;2024-03-02T08:00:30;93529.75;;;11.10;100.00
11808;BME280;5961;42.640;23.380;2024-03-02T08:02:58;93468.78;;;10.67;100.00
11808;BME280;5961;42.640;23.380;2024-03-02T08:05:25;93536.38;;;11.00;100.00
11808;BME280;5961;42.640;23.380;2024-03-02T08:07:52;93533.47;;;10.90;100.00
11808;BME280;5961;42.640;23.380;2024-03-02T08:10:19;93542.28;;;10.94;100.00
11808;BME280;5961;42.640;23.380;2024-03-02T08:12:46;93543.75;;;10.91;100.00
11808;BME280;5961;42.640;23.380;2024-03-02T08:15:13;93545.63;;;10.91;100.00
11808;BME280;5961;42.640;23.380;2024-03-02T08:17:40;93539.03;;;10.85;100.00
11808;BME280;5961;42.640;23.380;2024-03-02T08:20:12;93545.22;;;10.89;100.00
11808;BME280;5961;42.640;23.380;2024-03-02T08:22:39;93537.06;;;10.82;100.00
11808;BME280;5961;42.640;23.380;2024-03-02T08:25:07;93545.31;;;10.92;100.00
11808;BME280;5961;42.640;23.380;2024-03-02T08:27:35;93545.31;;;10.77;100.00
11808;BME280;5961;42.640;23.380;2024-03-02T08:30:01;93544.22;;;10.62;100.00
11808;BME280;5961;42.640;23.380;2024-03-02T08:32:31;93534.81;;;10.33;100.00
11808;BME280;5961;42.640;23.380;2024-03-02T08:34:58;93537.75;;;10.16;100.00
11808;BME280;5961;42.640;23.380;2024-03-02T08:37:26;93531.97;;;9.99;100.00
11808;BME280;5961;42.640;23.380;2024-03-02T08:39:53;93531.63;;;9.84;100.00
11808;BME280;5961;42.640;23.380;2024-03-02T08:42:19;93529.53;;;9.50;100.00
11808;BME280;5961;42.640;23.380;2024-03-02T08:44:46;93531.66;;;9.45;100.00
11808;BME280;5961;42.640;23.380;2024-03-02T08:47:13;93537.72;;;9.45;100.00
11808;BME280;5961;42.640;23.380;2024-03-02T08:49:41;93536.53;;;9.43;100.00
11808;BME280;5961;42.640;23.380;2024-03-02T08:52:08;93537.88;;;9.36;100.00
11808;BME280;5961;42.640;23.380;2024-03-02T08:54:36;93536.56;;;9.30;100.00
11808;BME280;5961;42.640;23.380;2024-03-02T08:57:03;93527.47;;;9.31;100.00
11808;BME280;5961;42.640;23.380;2024-03-02T08:59:30;93532.56;;;9.36;100.00
11808;BME280;5961;42.640;23.380;2024-03-02T09:01:57;93536.53;;;9.43;100.00
11808;BME280;5961;42.640;23.380;2024-03-02T09:04:24;93535.59;;;9.51;100.00
11808;BME280;5961;42.640;23.380;2024-03-02T09:06:51;93529.38;;;9.59;100.00
11808;BME280;5961;42.640;23.380;2024-03-02T09:09:18;93537.41;;;9.74;100.00
11808;BME280;5961;42.640;23.380;2024-03-02T09:11:47;93530.84;;;9.84;100.00
11808;BME280;5961;42.640;23.380;2024-03-02T09:14:14;93532.41;;;10.01;100.00
11808;BME280;5961;42.640;23.380;2024-03-02T09:16:41;93544.41;;;10.10;100.00
11808;BME280;5961;42.640;23.380;2024-03-02T09:19:07;93543.25;;;10.23;100.00
11808;BME280;5961;42.640;23.380;2024-03-02T09:21:34;93542.84;;;10.37;100.00
11808;BME280;5961;42.640;23.380;2024-03-02T09:24:01;93553.28;;;10.45;100.00
11808;BME280;5961;42.640;23.380;2024-03-02T09:26:29;93548.28;;;11.07;100.00
11808;BME280;5961;42.640;23.380;2024-03-02T09:28:57;93552.28;;;11.16;100.00
11808;BME280;5961;42.640;23.380;2024-03-02T09:31:23;93559.78;;;11.11;100.00
11808;BME280;5961;42.640;23.380;2024-03-02T09:33:50;93557.66;;;10.85;100.00
11808;BME280;5961;42.640;23.380;2024-03-02T09:36:17;93556.38;;;10.79;100.00
11808;BME280;5961;42.640;23.380;2024-03-02T09:38:45;93449.00;;;9.86;100.00
11808;BME280;5961;42.640;23.380;2024-03-02T09:41:12;93558.00;;;10.36;100.00
11808;BME280;5961;42.640;23.380;2024-03-02T09:43:39;93556.16;;;10.09;100.00
11808;BME280;5961;42.640;23.380;2024-03-02T09:46:09;93553.38;;;9.90;100.00
11808;BME280;5961;42.640;23.380;2024-03-02T09:48:36;93524.53;;;9.61;100.00
11808;BME280;5961;42.640;23.380;2024-03-02T09:51:04;93557.66;;;9.67;100.00
11808;BME280;5961;42.640;23.380;2024-03-02T09:53:33;93554.28;;;9.54;100.00
11808;BME280;5961;42.640;23.380;2024-03-02T09:56:00;93549.44;;;9.44;100.00
11808;BME280;5961;42.640;23.380;2024-03-02T09:58:27;93554.88;;;9.35;100.00
11808;BME280;5961;42.640;23.380;2024-03-02T10:00:54;93555.13;;;9.30;100.00
11808;BME280;5961;42.640;23.380;2024-03-02T10:03:22;93549.38;;;9.16;100.00
11808;BME280;5961;42.640;23.380;2024-03-02T10:05:49;93551.16;;;9.24;100.00
11808;BME280;5961;42.640;23.380;2024-03-02T10:08:17;93550.28;;;9.20;100.00
11808;BME280;5961;42.640;23.380;2024-03-02T10:10:44;93537.94;;;9.12;100.00
11808;BME280;5961;42.640;23.380;2024-03-02T10:13:12;93554.81;;;9.20;100.00
11808;BME280;5961;42.640;23.380;2024-03-02T10:15:40;93555.56;;;9.20;100.00
11808;BME280;5961;42.640;23.380;2024-03-02T10:18:08;93534.63;;;9.03;100.00
11808;BME280;5961;42.640;23.380;2024-03-02T10:20:38;93555.47;;;9.17;100.00
11808;BME280;5961;42.640;23.380;2024-03-02T10:23:11;93550.97;;;9.05;100.00
11808;BME280;5961;42.640;23.380;2024-03-02T10:25:38;93551.94;;;9.01;100.00
11808;BME280;5961;42.640;23.380;2024-03-02T10:28:05;93547.88;;;9.03;100.00
11808;BME280;5961;42.640;23.380;2024-03-02T10:30:33;93536.94;;;9.05;100.00
11808;BME280;5961;42.640;23.380;2024-03-02T10:33:00;93550.38;;;9.24;100.00
11808;BME280;5961;42.640;23.380;2024-03-02T10:35:27;93544.44;;;9.15;100.00
11808;BME280;5961;42.640;23.380;2024-03-02T10:37:55;93543.97;;;9.13;100.00
11808;BME280;5961;42.640;23.380;2024-03-02T10:40:22;93546.97;;;9.11;100.00
11808;BME280;5961;42.640;23.380;2024-03-02T10:42:50;93543.78;;;9.06;100.00
11808;BME280;5961;42.640;23.380;2024-03-02T10:45:19;93549.53;;;9.08;100.00
11808;BME280;5961;42.640;23.380;2024-03-02T10:47:46;93547.75;;;9.12;100.00
11808;BME280;5961;42.640;23.380;2024-03-02T10:50:14;93541.13;;;9.18;100.00
11808;BME280;5961;42.640;23.380;2024-03-02T10:52:41;93543.41;;;9.19;100.00
11808;BME280;5961;42.640;23.380;2024-03-02T10:55:10;93535.91;;;9.21;100.00
11808;BME280;5961;42.640;23.380;2024-03-02T10:57:42;93530.84;;;9.16;100.00
11808;BME280;5961;42.640;23.380;2024-03-02T11:00:13;93536.03;;;9.13;100.00
11808;BME280;5961;42.640;23.380;2024-03-02T11:02:50;93533.06;;;9.02;100.00
11808;BME280;5961;42.640;23.380;2024-03-02T11:05:26;93511.91;;;8.90;100.00
11808;BME280;5961;42.640;23.380;2024-03-02T11:07:58;93527.34;;;9.00;100.00
11808;BME280;5961;42.640;23.380;2024-03-02T11:10:32;93528.84;;;9.13;100.00
11808;BME280;5961;42.640;23.380;2024-03-02T11:13:02;93528.41;;;9.23;100.00
11808;BME280;5961;42.640;23.380;2024-03-02T11:15:31;93531.19;;;9.15;100.00
11808;BME280;5961;42.640;23.380;2024-03-02T11:18:03;93531.75;;;9.08;100.00
11808;BME280;5961;42.640;23.380;2024-03-02T11:20:35;93529.97;;;9.12;100.00
11808;BME280;5961;42.640;23.380;2024-03-02T11:23:05;93532.94;;;9.11;100.00
11808;BME280;5961;42.640;23.380;2024-03-02T11:25:34;93527.78;;;9.02;100.00
11808;BME280;5961;42.640;23.380;2024-03-02T11:28:05;93524.78;;;9.04;100.00
11808;BME280;5961;42.640;23.380;2024-03-02T11:30:51;93525.66;;;9.08;100.00
11808;BME280;5961;42.640;23.380;2024-03-02T11:33:24;93529.63;;;9.14;100.00
11808;BME280;5961;42.640;23.380;2024-03-02T11:35:56;93525.66;;;9.08;100.00
11808;BME280;5961;42.640;23.380;2024-03-02T11:38:28;93528.06;;;9.13;100.00
11808;BME280;5961;42.640;23.380;2024-03-02T11:40:56;93521.38;;;9.03;100.00
11808;BME280;5961;42.640;23.380;2024-03-02T11:43:23;93522.47;;;9.02;100.00
11808;BME280;5961;42.640;23.380;2024-03-02T11:45:57;93500.66;;;8.81;100.00
11808;BME280;5961;42.640;23.380;2024-03-02T11:48:24;93529.66;;;8.90;100.00
11808;BME280;5961;42.640;23.380;2024-03-02T11:50:52;93521.06;;;8.93;100.00
11808;BME280;5961;42.640;23.380;2024-03-02T11:53:20;93524.25;;;8.98;100.00
11808;BME280;5961;42.640;23.380;2024-03-02T11:55:47;93530.53;;;9.06;100.00
11808;BME280;5961;42.640;23.380;2024-03-02T11:58:17;93525.22;;;9.06;100.00
11808;BME280;5961;42.640;23.380;2024-03-02T12:00:45;93529.34;;;9.03;100.00
11808;BME280;5961;42.640;23.380;2024-03-02T12:03:13;93530.00;;;9.00;100.00
11808;BME280;5961;42.640;23.380;2024-03-02T12:05:40;93528.00;;;8.97;100.00
11808;BME280;5961;42.640;23.380;2024-03-02T12:08:07;93524.38;;;8.90;100.00
11808;BME280;5961;42.640;23.380;2024-03-02T12:10:35;93529.66;;;8.90;100.00
11808;BME280;5961;42.640;23.380;2024-03-02T12:13:04;93527.34;;;9.00;100.00
11808;BME280;5961;42.640;23.380;2024-03-02T12:15:34;93528.41;;;9.11;100.00
11808;BME280;5961;42.640;23.380;2024-03-02T12:18:02;93532.94;;;9.11;100.00
11808;BME280;5961;42.640;23.380;2024-03-02T12:20:30;93528.06;;;9.13;100.00
11808;BME280;5961;42.640;23.380;2024-03-02T12:22:58;93529.41;;;9.07;100.00
11808;BME280;5961;42.640;23.380;2024-03-02T12:25:25;93529.34;;;9.03;100.00
11808;BME280;5961;42.640;23.380;2024-03-02T12:27:54;93528.09;;;9.01;100.00
11808;BME280;5961;42.640;23.380;2024-03-02T12:30:22;93532.84;;;8.95;100.00
11808;BME280;5961;42.640;23.380;2024-03-02T12:32:50;93524.59;;;8.97;100.00
11808;BME280;5961;42.640;23.380;2024-03-02T12:35:17;93528.75;;;9.10;100.00
11808;BME280;5961;42.640;23.380;2024-03-02T12:37:45;93523.66;;;9.17;100.00
11808;BME280;5961;42.640;23.380;2024-03-02T12:40:12;93529.06;;;9.20;100.00
11808;BME280;5961;42.640;23.380;2024-03-02T12:42:40;93528.53;;;9.15;100.00
11808;BME280;5961;42.640;23.380;2024-03-02T12:45:08;93533.06;;;9.14;100.00
11808;BME280;5961;42.640;23.380;2024-03-02T12:47:35;93528.66;;;9.06;100.00
11808;BME280;5961;42.640;23.380;2024-03-02T12:50:04;93535.72;;;9.14;100.00
11808;BME280;5961;42.640;23.380;2024-03-02T12:52:31;93529.72;;;9.17;100.00
11808;BME280;5961;42.640;23.380;2024-03-02T12:54:59;93520.22;;;9.16;100.00
11808;BME280;5961;42.640;23.380;2024-03-02T12:57:28;93536.22;;;9.32;100.00
11808;BME280;5961;42.640;23.380;2024-03-02T12:59:58;93537.22;;;9.27;100.00
11808;BME280;5961;42.640;23.380;2024-03-02T13:02:28;93531.38;;;9.22;100.00
11808;BME280;5961;42.640;23.380;2024-03-02T13:04:55;93532.56;;;9.36;100.00